Terminal Aerodrome Forecast
Issued by NWS Cleveland, OH

Home | Current Version | Previous Version | Text Only | Print | Product List | Glossary On
Versions: 1 2 3 4 5 6 7 8 9 10 11 12 13 14 15 16 17
000
FTUS41 KCLE 050540
TAFCAK
TAF
KCAK 050540Z 0506/0606 30006KT 4SM -SHRA BR BKN008 OVC012
      TEMPO 0506/0510 OVC003
     FM051000 36006KT 4SM BR BKN008 OVC012
      TEMPO 0510/0514 2SM BR
     FM051600 02012KT P6SM SCT008 OVC012
     FM052000 02014G22KT P6SM OVC035
     FM060000 35012KT P6SM BKN050=

USA.gov is the U.S. government's official web portal to all federal, state and local government web resources and services.